D/T METAR WX W/DIR W/SPE G/SPE TEMP DEWP
7/12/19 23:50 EGQL 072350Z 23027G40KT 9999 -RA BKN020 BKN050 11/09 Q0981 WHT -RA SW (230°) 31.1mph 46.0mph 11°C 9°C
7/12/19 22:50 EGQL 072250Z 23025KT 9999 RA FEW020 BKN050 10/09 Q0982 BLU RA SW (230°) 28.8mph 10°C 9°C
7/12/19 21:50 EGQL 072150Z 22022KT 9000 RA SCT018 BKN050 11/09 Q0984 WHT RA SW (220°) 25.3mph 11°C 9°C
7/12/19 20:50 EGQL 072050Z 23017KT 9999 -RA SCT021 BKN042 11/09 Q0987 WHT -RA SW (230°) 19.6mph 11°C 9°C
7/12/19 19:50 EGQL 071950Z 23020KT 9999 SCT015 BKN130 11/09 Q0990 WHT SW (230°) 23.0mph 11°C 9°C
7/12/19 18:50 EGQL 071850Z 25017KT 9999 -SHRA BKN014 10/09 Q0992 GRN -SHRA WSW (250°) 19.6mph 10°C 9°C
7/12/19 17:50 EGQL 071750Z 23021KT 9999 SCT014 BKN070 10/09 Q0993 GRN SW (230°) 24.2mph 10°C 9°C
7/12/19 16:50 EGQL 071650Z 23013KT 9999 -SHRA BKN013 10/09 Q0995 GRN -SHRA SW (230°) 15.0mph 10°C 9°C
7/12/19 15:50 EGQL 071550Z 23014KT 9999 -SHRA FEW017 BKN060 09/08 Q0997 BLU -SHRA SW (230°) 16.1mph 9°C 8°C
7/12/19 14:52 EGQL 071452Z 23012KT 9999 -RA FEW013 SCT041 BKN048 09/08 Q0998 BLU -RA SW (230°) 13.8mph 9°C 8°C
7/12/19 13:50 EGQL 071350Z 22012KT 9999 -SHRA OVC011 09/07 Q1000 GRN -SHRA SW (220°) 13.8mph 9°C 7°C
7/12/19 12:50 EGQL 071250Z 22014KT 9999 BKN009 09/08 Q1001 GRN SW (220°) 16.1mph 9°C 8°C
7/12/19 11:50 EGQL 071150Z 24010KT 9999 BKN010 SCT060 09/08 Q1002 GRN WSW (240°) 11.5mph 9°C 8°C
7/12/19 10:50 EGQL 071050Z 24007KT 9999 FEW014 BKN060 BKN190 07/06 Q1003 BLU WSW (240°) 8.1mph 7°C 6°C
7/12/19 09:50 EGQL 070950Z 27009KT 9999 FEW038 BKN200 06/06 Q1003 BLU W (270°) 10.4mph 6°C 6°C
7/12/19 08:50 EGQL 070850Z 26007KT CAVOK 04/04 Q1004 BLU W (260°) 8.1mph 4°C 4°C
7/12/19 07:50 EGQL 070750Z 24009KT CAVOK 04/04 Q1003 BLU WSW (240°) 10.4mph 4°C 4°C
7/12/19 06:50 EGQL 070650Z 24007KT 9999 FEW045 BKN160 03/03 Q1003 BLU WSW (240°) 8.1mph 3°C 3°C
7/12/19 05:50 EGQL 070550Z 26006KT CAVOK 03/03 Q1003 BLU W (260°) 6.9mph 3°C 3°C
7/12/19 04:50 EGQL 070450Z 26003KT CAVOK 04/04 Q1003 BLU W (260°) 3.5mph 4°C 4°C
7/12/19 03:50 EGQL 070350Z 24004KT CAVOK 04/03 Q1002 BLU WSW (240°) 4.6mph 4°C 3°C
7/12/19 02:50 EGQL 070250Z 26001KT 9999 FEW042 05/04 Q1002 BLU W (260°) 1.2mph 5°C 4°C
7/12/19 01:50 EGQL 070150Z 33003KT 9999 BKN042 SCT250 05/04 Q1001 BLU NNW (330°) 3.5mph 5°C 4°C
7/12/19 00:50 EGQL 070050Z 26006KT CAVOK 04/03 Q1001 BLU W (260°) 6.9mph 4°C 3°C
6/12/19 23:50 EGQL 062350Z 23006KT CAVOK 05/04 Q1000 BLU SW (230°) 6.9mph 5°C 4°C
6/12/19 22:50 EGQL 062250Z 25010KT CAVOK 05/03 Q0999 BLU WSW (250°) 11.5mph 5°C 3°C
6/12/19 21:50 EGQL 062150Z 28008KT CAVOK 08/05 Q0999 BLU W (280°) 9.2mph 8°C 5°C
6/12/19 20:50 EGQL 062050Z 27012KT CAVOK 08/05 Q0997 BLU W (270°) 13.8mph 8°C 5°C
6/12/19 19:50 EGQL 061950Z 25013KT CAVOK 06/04 Q0997 BLU WSW (250°) 15.0mph 6°C 4°C
6/12/19 18:50 EGQL 061850Z 26010KT CAVOK 07/05 Q0996 BLU W (260°) 11.5mph 7°C 5°C
6/12/19 17:50 EGQL 061750Z 27009KT CAVOK 08/05 Q0994 BLU W (270°) 10.4mph 8°C 5°C
6/12/19 16:50 EGQL 061650Z 27011KT CAVOK 09/06 Q0993 BLU W (270°) 12.7mph 9°C 6°C
6/12/19 15:50 EGQL 061550Z 26008KT CAVOK 07/06 Q0992 BLU W (260°) 9.2mph 7°C 6°C
6/12/19 14:50 EGQL 061450Z AUTO 27006KT 9999 SCT041/// 10/07 Q0991 W (270°) 6.9mph 10°C 7°C
6/12/19 13:50 EGQL 061350Z 27009KT 9999 FEW030 SCT130 11/07 Q0991 RMK BLU W (270°) 10.4mph 11°C 7°C
6/12/19 12:50 EGQL 061250Z 26009KT CAVOK 09/08 Q0991 BLU W (260°) 10.4mph 9°C 8°C
6/12/19 11:50 EGQL 061150Z 26012KT 9999 FEW011 SCT045 OVC090 09/08 Q0990 RMK BLU W (260°) 13.8mph 9°C 8°C
6/12/19 10:50 EGQL 061050Z 25017KT CAVOK 10/08 Q0990 BLU WSW (250°) 19.6mph 10°C 8°C
6/12/19 09:50 EGQL 060950Z 26009KT 9999 FEW011 SCT070 BKN180 11/10 Q0989 RMK BLU W (260°) 10.4mph 11°C 10°C
6/12/19 08:50 EGQL 060850Z 24012KT 4000 -RA FEW013 BKN050 11/10 Q0990 RMK GRN -RA WSW (240°) 13.8mph 11°C 10°C
6/12/19 07:50 EGQL 060750Z 24013KT 7000 -RA SCT013 BKN050 11/10 Q0990 GRN -RA WSW (240°) 15.0mph 11°C 10°C
6/12/19 06:50 EGQL 060650Z 23011KT 9999 -SHRA FEW014 BKN023 11/10 Q0991 RMK WHT -SHRA SW (230°) 12.7mph 11°C 10°C
6/12/19 05:50 EGQL 060550Z 24013KT 9999 FEW011 SCT020 BKN150 11/10 Q0991 RMK WHT WSW (240°) 15.0mph 11°C 10°C
6/12/19 04:50 EGQL 060450Z 25017KT 9999 FEW024 BKN160 11/10 Q0991 RMK BLU WSW (250°) 19.6mph 11°C 10°C
6/12/19 03:50 EGQL 060350Z 26021KT 9999 SCT021 BKN220 11/10 Q0992 RMK WHT W (260°) 24.2mph 11°C 10°C
6/12/19 02:50 EGQL 060250Z 25019KT 9999 FEW024 SCT240 11/09 Q0992 RMK BLU WSW (250°) 21.9mph 11°C 9°C
6/12/19 01:50 EGQL 060150Z 24019KT 9999 FEW029 11/09 Q0993 RMK BLU WSW (240°) 21.9mph 11°C 9°C
6/12/19 00:50 EGQL 060050Z 25018KT CAVOK 11/09 Q0993 / RMK BLU WSW (250°) 20.7mph 11°C 9°C